createdAt,value
2022-11-28T00:05:11.988Z,7.18
2022-11-28T00:10:32.624Z,9.27
2022-11-28T00:15:57.842Z,8.45
2022-11-28T00:21:19.886Z,14.52
2022-11-28T00:26:41.777Z,13.98
2022-11-28T00:32:03.501Z,12.02
2022-11-28T00:37:24.179Z,13.63
2022-11-28T00:42:44.809Z,11.82
2022-11-28T00:48:05.539Z,17.48
2022-11-28T00:53:26.160Z,13.88
2022-11-28T00:58:50.680Z,17.75
2022-11-28T01:04:14.704Z,14.63
2022-11-28T01:09:35.376Z,15.50
2022-11-28T01:14:58.158Z,16.92
2022-11-28T01:20:18.625Z,17.60
2022-11-28T01:25:39.701Z,13.90
2022-11-28T01:31:08.292Z,16.75
2022-11-28T01:36:29.282Z,17.83
2022-11-28T01:41:49.651Z,20.83
2022-11-28T01:47:10.156Z,12.70
2022-11-28T01:52:31.139Z,16.55
2022-11-28T01:57:54.030Z,22.20
2022-11-28T02:03:20.852Z,14.57
2022-11-28T02:08:41.999Z,10.38
2022-11-28T02:14:31.173Z,19.23
2022-11-28T02:20:16.871Z,14.00
2022-11-28T02:26:22.721Z,15.77
2022-11-28T02:32:07.284Z,17.85
2022-11-28T02:37:46.120Z,18.63
2022-11-28T02:45:18.451Z,16.88
2022-11-28T02:51:07.338Z,16.52
2022-11-28T02:56:27.905Z,19.60
2022-11-28T03:01:48.656Z,23.38
2022-11-28T03:07:17.742Z,17.67
2022-11-28T03:12:56.560Z,18.02
2022-11-28T03:18:27.128Z,16.33
2022-11-28T03:23:54.221Z,16.05
2022-11-28T03:29:36.998Z,16.17
2022-11-28T03:35:14.100Z,17.02
2022-11-28T03:40:42.618Z,19.05
2022-11-28T03:46:08.427Z,17.15
2022-11-28T03:51:35.462Z,18.00
2022-11-28T03:57:11.679Z,12.27
2022-11-28T04:02:39.984Z,13.50
2022-11-28T04:08:19.129Z,15.90
2022-11-28T04:13:51.243Z,13.25
2022-11-28T04:19:53.429Z,14.18
2022-11-28T04:25:17.220Z,15.43
2022-11-28T04:30:39.868Z,11.38
2022-11-28T04:36:03.460Z,11.20
2022-11-28T04:41:32.333Z,11.70
2022-11-28T04:46:55.341Z,12.52
2022-11-28T04:52:36.765Z,12.68
2022-11-28T04:58:11.392Z,9.25
2022-11-28T05:03:32.428Z,9.47
2022-11-28T05:08:53.359Z,9.77
2022-11-28T05:14:14.136Z,13.65
2022-11-28T05:19:34.734Z,12.63
2022-11-28T05:24:55.064Z,17.33
2022-11-28T05:30:15.983Z,14.43
2022-11-28T05:35:39.670Z,13.27
2022-11-28T05:41:01.096Z,12.35
2022-11-28T05:46:21.983Z,10.98
2022-11-28T05:51:43.091Z,12.73
2022-11-28T05:57:06.328Z,13.90
2022-11-28T06:02:26.855Z,13.00
2022-11-28T06:07:47.721Z,11.93
2022-11-28T06:13:08.442Z,10.85
2022-11-28T06:18:29.095Z,11.65
2022-11-28T06:23:50.067Z,7.82
2022-11-28T06:29:10.866Z,10.32
2022-11-28T06:34:32.427Z,14.27
2022-11-28T06:39:52.914Z,10.02
2022-11-28T06:45:13.898Z,13.07
2022-11-28T06:50:34.279Z,11.00
2022-11-28T06:55:54.841Z,11.93
2022-11-28T07:01:19.037Z,11.18
2022-11-28T07:12:00.448Z,15.88
2022-11-28T07:17:21.518Z,8.13
2022-11-28T07:22:43.620Z,12.93
2022-11-28T07:28:04.171Z,14.57
2022-11-28T07:33:24.842Z,11.80
2022-11-28T07:38:53.451Z,12.07
2022-11-28T07:44:17.693Z,15.15
2022-11-28T07:49:38.085Z,19.73
2022-11-28T07:54:58.534Z,11.75
2022-11-28T08:00:19.772Z,12.52
2022-11-28T08:05:42.121Z,11.52
2022-11-28T08:11:05.419Z,9.98
2022-11-28T08:16:28.182Z,11.32
2022-11-28T08:21:48.882Z,11.10
2022-11-28T08:27:09.092Z,13.07
2022-11-28T08:32:30.477Z,17.08
2022-11-28T08:37:50.852Z,17.95
2022-11-28T08:43:11.385Z,16.65
2022-11-28T08:48:33.007Z,16.58
2022-11-28T08:53:59.147Z,15.27
2022-11-28T08:59:20.313Z,14.52
2022-11-28T09:04:41.088Z,13.15
2022-11-28T09:10:02.932Z,20.30
2022-11-28T09:15:23.342Z,18.38
2022-11-28T09:20:44.061Z,15.60
2022-11-28T09:26:13.786Z,12.98
2022-11-28T09:31:34.319Z,14.68
2022-11-28T09:36:54.815Z,14.40
2022-11-28T09:42:44.077Z,12.75
2022-11-28T09:48:23.001Z,14.70
2022-11-28T09:54:13.090Z,15.98
2022-11-28T09:59:34.325Z,15.50
2022-11-28T10:05:28.127Z,15.15
2022-11-28T10:10:53.712Z,14.40
2022-11-28T10:16:33.588Z,12.25
2022-11-28T10:22:00.352Z,16.73
2022-11-28T10:27:27.018Z,19.08
2022-11-28T10:32:57.671Z,16.83
2022-11-28T10:38:20.875Z,12.32
2022-11-28T10:44:10.968Z,14.27
2022-11-28T10:50:05.995Z,14.95
2022-11-28T10:55:45.649Z,14.97
2022-11-28T11:01:06.424Z,17.50
2022-11-28T11:06:36.082Z,18.52
2022-11-28T11:17:37.805Z,18.63
2022-11-28T11:23:02.043Z,14.77
2022-11-28T11:28:39.446Z,16.75
2022-11-28T11:34:06.694Z,20.20
2022-11-28T11:39:27.681Z,14.63
2022-11-28T11:44:48.289Z,16.88
2022-11-28T11:50:18.438Z,20.00
2022-11-28T11:55:51.409Z,15.93
2022-11-28T12:01:17.018Z,19.17
2022-11-28T12:06:41.091Z,17.27
2022-11-28T12:12:13.571Z,18.33
2022-11-28T12:18:09.306Z,21.00
2022-11-28T12:23:49.011Z,18.02
2022-11-28T12:29:37.660Z,16.02
2022-11-28T12:35:06.554Z,18.67
2022-11-28T12:40:55.258Z,14.23
2022-11-28T12:46:47.711Z,15.93
2022-11-28T12:52:29.265Z,14.20
2022-11-28T12:58:13.849Z,14.98
2022-11-28T13:04:12.955Z,16.05
2022-11-28T13:09:52.266Z,17.70
2022-11-28T13:15:42.670Z,16.48
2022-11-28T13:21:16.914Z,20.70
2022-11-28T13:27:14.964Z,14.55
2022-11-28T13:32:45.329Z,15.95
2022-11-28T13:39:01.687Z,22.20
2022-11-28T13:44:41.773Z,16.75
2022-11-28T13:50:30.867Z,14.65
2022-11-28T13:56:04.997Z,18.83
2022-11-28T14:01:28.080Z,18.70
2022-11-28T14:06:59.118Z,19.92
2022-11-28T14:12:30.620Z,20.17
2022-11-28T14:18:54.387Z,16.88
2022-11-28T14:24:22.787Z,19.10
2022-11-28T14:29:49.418Z,19.00
2022-11-28T14:35:38.014Z,17.65
2022-11-28T14:41:03.518Z,17.67
2022-11-28T14:46:30.401Z,21.17
2022-11-28T14:52:09.822Z,21.10
2022-11-28T14:57:36.050Z,25.05
2022-11-28T15:03:16.180Z,18.23
2022-11-28T15:08:59.202Z,17.08
2022-11-28T15:14:22.860Z,25.02
2022-11-28T15:19:46.343Z,18.90
2022-11-28T15:25:25.189Z,15.18
2022-11-28T15:30:50.002Z,22.15
2022-11-28T15:36:27.408Z,19.73
2022-11-28T15:41:48.365Z,25.15
2022-11-28T15:47:19.225Z,20.98
2022-11-28T15:52:39.668Z,21.55
2022-11-28T15:58:25.467Z,18.58
2022-11-28T16:03:54.700Z,25.85
2022-11-28T16:09:19.033Z,20.48
2022-11-28T16:14:44.591Z,19.77
2022-11-28T16:20:06.037Z,18.33
2022-11-28T16:25:27.433Z,22.92
2022-11-28T16:30:48.626Z,17.95
2022-11-28T16:36:24.994Z,18.45
2022-11-28T16:41:54.677Z,21.67
2022-11-28T16:47:28.044Z,23.55
2022-11-28T16:52:56.159Z,19.30
2022-11-28T16:58:21.624Z,27.98
2022-11-28T17:03:50.954Z,19.92
2022-11-28T17:09:12.634Z,18.77
2022-11-28T17:14:33.754Z,23.38
2022-11-28T17:19:54.287Z,23.35
2022-11-28T17:25:18.989Z,28.27
2022-11-28T17:30:39.808Z,17.13
2022-11-28T17:36:00.245Z,22.63
2022-11-28T17:41:23.200Z,23.05
2022-11-28T17:46:43.632Z,21.90
2022-11-28T17:52:03.930Z,21.73
2022-11-28T17:57:25.121Z,18.67
2022-11-28T18:02:46.006Z,21.73
2022-11-28T18:08:07.107Z,17.50
2022-11-28T18:13:29.454Z,23.10
2022-11-28T18:18:49.863Z,21.83
2022-11-28T18:24:10.641Z,22.08
2022-11-28T18:29:31.612Z,22.17
2022-11-28T18:34:52.634Z,22.35
2022-11-28T18:40:13.687Z,20.80
2022-11-28T18:45:35.276Z,23.98
2022-11-28T18:50:55.794Z,18.52
2022-11-28T18:56:16.606Z,23.58
2022-11-28T19:01:36.951Z,16.35
2022-11-28T19:06:58.151Z,25.00
2022-11-28T19:12:19.759Z,17.00
2022-11-28T19:17:40.651Z,17.73
2022-11-28T19:23:01.540Z,21.42
2022-11-28T19:28:22.705Z,19.23
2022-11-28T19:33:45.092Z,22.90
2022-11-28T19:39:07.560Z,26.05
2022-11-28T19:44:29.338Z,22.13
2022-11-28T19:49:49.957Z,20.75
2022-11-28T19:55:11.426Z,26.52
2022-11-28T20:00:32.752Z,24.33
2022-11-28T20:05:53.045Z,25.33
2022-11-28T20:11:17.235Z,32.78
2022-11-28T20:16:37.940Z,22.10
2022-11-28T20:21:58.816Z,21.77
2022-11-28T20:27:20.120Z,22.55
2022-11-28T20:32:40.558Z,24.02
2022-11-28T20:38:02.380Z,22.88
2022-11-28T20:43:23.079Z,28.73
2022-11-28T20:48:44.124Z,29.02
2022-11-28T20:54:06.111Z,28.42
2022-11-28T20:59:26.658Z,26.08
2022-11-28T21:04:46.917Z,31.60
2022-11-28T21:10:07.820Z,24.50
2022-11-28T21:15:29.684Z,28.25
2022-11-28T21:20:50.283Z,22.85
2022-11-28T21:26:27.390Z,23.95
2022-11-28T21:31:51.075Z,30.20
2022-11-28T21:37:11.695Z,26.83
2022-11-28T21:42:32.176Z,33.13
2022-11-28T21:47:52.821Z,26.80
2022-11-28T21:53:13.616Z,27.02
2022-11-28T21:58:34.268Z,27.02
2022-11-28T22:04:00.743Z,33.80
2022-11-28T22:09:23.193Z,29.67
2022-11-28T22:14:43.710Z,29.88
2022-11-28T22:20:05.836Z,31.55
2022-11-28T22:25:26.828Z,30.75
2022-11-28T22:30:48.618Z,31.45
2022-11-28T22:36:13.664Z,29.38
2022-11-28T22:41:34.057Z,32.35
2022-11-28T22:46:54.714Z,35.13
2022-11-28T22:52:15.258Z,35.70
2022-11-28T22:57:35.699Z,31.83
2022-11-28T23:02:56.291Z,35.17
2022-11-28T23:08:16.698Z,34.78
2022-11-28T23:13:38.475Z,32.60
2022-11-28T23:19:02.631Z,31.25
2022-11-28T23:24:23.564Z,34.45
2022-11-28T23:29:45.131Z,38.05
2022-11-28T23:35:08.118Z,32.67
2022-11-28T23:40:28.878Z,32.67
2022-11-28T23:45:49.696Z,34.22
2022-11-28T23:51:12.702Z,31.30
2022-11-28T23:56:35.928Z,34.40
